Cameron, Illinois
Current Conditions -  °F | °C
As of 1:55 PM on Sunday 23 Nov 2014 (Local Time) from KGBG Reporting Station
Light Rain Light Rain  
Wind Chill: 52°   Ceiling: 600
Heat Index: 52°   Visibility: 4mi
Dew Point: 51°   Wind: 7mph
Humidity: 97%   Direction: 130°SE
Pressure: 29.41"   Gusts: NA
Location:  40.89°N, 90.52°W
Report Text: KGBG 231955Z AUTO 13006KT 4SM -RA OVC006 11/11 A2941 RMK AO2 P0001 T01100105
Loading
Personal Weather Stations






























Interactive Weather Map New forecast layout! Learn more

10-Day Weather Forecast

Advertisements
Track Severe Weather on mobile